createdAt,value
2023-04-03T00:02:27.360Z,3.60
2023-04-03T00:05:09.314Z,3.60
2023-04-03T00:07:37.943Z,3.50
2023-04-03T00:10:14.638Z,3.50
2023-04-03T00:12:49.328Z,3.50
2023-04-03T00:15:17.878Z,3.40
2023-04-03T00:17:54.301Z,3.40
2023-04-03T00:20:29.288Z,3.50
2023-04-03T00:22:57.829Z,3.30
2023-04-03T00:25:33.329Z,3.30
2023-04-03T00:28:08.384Z,3.30
2023-04-03T00:30:37.079Z,3.30
2023-04-03T00:33:13.625Z,3.30
2023-04-03T00:35:42.337Z,3.20
2023-04-03T00:38:18.630Z,3.20
2023-04-03T00:40:55.632Z,3.20
2023-04-03T00:43:27.411Z,3.20
2023-04-03T00:46:03.458Z,3.20
2023-04-03T00:48:35.731Z,3.10
2023-04-03T00:51:13.342Z,3.10
2023-04-03T00:53:45.756Z,3.10
2023-04-03T00:56:23.310Z,3.10
2023-04-03T00:58:57.382Z,3.10
2023-04-03T01:01:35.625Z,3.10
2023-04-03T01:04:13.411Z,3.00
2023-04-03T01:06:49.175Z,3.00
2023-04-03T01:09:24.284Z,3.00
2023-04-03T01:11:59.614Z,3.00
2023-04-03T01:14:28.035Z,3.00
2023-04-03T01:17:03.656Z,3.00
2023-04-03T01:19:41.340Z,3.00
2023-04-03T01:22:22.106Z,2.90
2023-04-03T01:24:58.374Z,2.90
2023-04-03T01:27:27.141Z,2.90
2023-04-03T01:30:02.342Z,2.80
2023-04-03T01:32:32.412Z,2.80
2023-04-03T01:35:07.599Z,2.80
2023-04-03T01:37:36.174Z,2.80
2023-04-03T01:40:11.630Z,2.90
2023-04-03T01:42:40.152Z,2.70
2023-04-03T01:45:16.362Z,2.70
2023-04-03T01:47:46.316Z,2.60
2023-04-03T01:50:21.362Z,2.60
2023-04-03T01:52:56.680Z,2.50
2023-04-03T01:55:25.407Z,2.50
2023-04-03T01:58:00.362Z,2.50
2023-04-03T02:00:35.680Z,2.50
2023-04-03T02:03:06.190Z,2.50
2023-04-03T02:05:48.639Z,2.50
2023-04-03T02:08:25.625Z,2.50
2023-04-03T02:10:54.535Z,2.40
2023-04-03T02:13:29.395Z,2.40
2023-04-03T02:15:57.829Z,2.40
2023-04-03T02:18:34.773Z,2.30
2023-04-03T02:21:09.653Z,2.40
2023-04-03T02:23:38.435Z,2.30
2023-04-03T02:26:09.271Z,2.30
2023-04-03T02:28:44.425Z,2.30
2023-04-03T02:31:13.379Z,2.30
2023-04-03T02:33:50.395Z,2.20
2023-04-03T02:36:18.933Z,2.20
2023-04-03T02:38:54.394Z,2.20
2023-04-03T02:41:30.731Z,2.20
2023-04-03T02:43:59.194Z,2.20
2023-04-03T02:46:34.786Z,2.20
2023-04-03T02:49:11.402Z,2.10
2023-04-03T02:51:39.906Z,2.10
2023-04-03T02:54:15.612Z,2.20
2023-04-03T02:56:50.484Z,2.10
2023-04-03T02:59:19.209Z,2.10
2023-04-03T03:01:54.452Z,2.10
2023-04-03T03:04:31.517Z,2.10
2023-04-03T03:07:06.873Z,2.10
2023-04-03T03:09:41.444Z,2.10
2023-04-03T03:12:10.114Z,2.00
2023-04-03T03:14:38.589Z,2.00
2023-04-03T03:17:13.504Z,2.20
2023-04-03T03:19:43.543Z,2.00
2023-04-03T03:22:12.025Z,2.00
2023-04-03T03:24:47.493Z,1.90
2023-04-03T03:27:17.496Z,1.90
2023-04-03T03:29:46.118Z,1.80
2023-04-03T03:32:21.505Z,1.80
2023-04-03T03:34:51.642Z,1.80
2023-04-03T03:37:26.498Z,1.70
2023-04-03T03:40:01.429Z,1.70
2023-04-03T03:42:29.862Z,1.70
2023-04-03T03:45:04.507Z,1.60
2023-04-03T03:47:33.207Z,1.60
2023-04-03T03:50:09.504Z,1.70
2023-04-03T03:52:44.504Z,1.60
2023-04-03T03:55:13.237Z,1.60
2023-04-03T03:57:48.523Z,1.60
2023-04-03T04:00:24.774Z,1.60
2023-04-03T04:02:54.064Z,1.50
2023-04-03T04:05:39.192Z,1.50
2023-04-03T04:08:14.789Z,1.40
2023-04-03T04:10:43.219Z,1.40
2023-04-03T04:13:18.806Z,1.40
2023-04-03T04:15:53.780Z,1.40
2023-04-03T04:18:23.618Z,1.30
2023-04-03T04:21:00.791Z,1.20
2023-04-03T04:23:29.386Z,1.20
2023-04-03T04:25:57.800Z,1.20
2023-04-03T04:28:32.505Z,1.20
2023-04-03T04:31:01.020Z,1.20
2023-04-03T04:33:29.284Z,1.20
2023-04-03T04:36:05.573Z,1.20
2023-04-03T04:38:34.123Z,1.10
2023-04-03T04:41:02.608Z,1.10
2023-04-03T04:43:37.498Z,1.10
2023-04-03T04:46:08.065Z,1.10
2023-04-03T04:48:43.560Z,1.10
2023-04-03T04:51:20.799Z,1.10
2023-04-03T04:53:49.419Z,1.10
2023-04-03T04:56:24.788Z,1.10
2023-04-03T04:58:59.859Z,1.10
2023-04-03T05:01:28.279Z,1.10
2023-04-03T05:04:03.581Z,1.10
2023-04-03T05:06:46.546Z,1.10
2023-04-03T05:09:15.294Z,1.10
2023-04-03T05:11:50.568Z,1.10
2023-04-03T05:14:25.593Z,1.10
2023-04-03T05:16:55.092Z,1.10
2023-04-03T05:19:30.484Z,1.10
2023-04-03T05:22:07.621Z,1.10
2023-04-03T05:24:36.382Z,1.10
2023-04-03T05:27:11.621Z,1.10
2023-04-03T05:29:40.378Z,1.10
2023-04-03T05:32:08.917Z,1.10
2023-04-03T05:34:43.935Z,1.10
2023-04-03T05:37:14.551Z,1.10
2023-04-03T05:39:43.074Z,1.20
2023-04-03T05:42:18.624Z,1.20
2023-04-03T05:44:48.520Z,1.10
2023-04-03T05:47:17.230Z,1.20
2023-04-03T05:49:52.542Z,1.20
2023-04-03T05:52:26.650Z,1.30
2023-04-03T05:55:02.616Z,1.30
2023-04-03T05:57:37.882Z,1.30
2023-04-03T06:00:07.847Z,1.30
2023-04-03T06:02:43.975Z,1.30
2023-04-03T06:05:31.650Z,1.30
2023-04-03T06:08:08.959Z,1.30
2023-04-03T06:10:44.570Z,1.40
2023-04-03T06:13:13.611Z,1.50
2023-04-03T06:15:48.574Z,1.60
2023-04-03T06:18:23.901Z,1.60
2023-04-03T06:20:52.557Z,1.70
2023-04-03T06:23:28.607Z,1.70
2023-04-03T06:26:03.667Z,1.80
2023-04-03T06:28:32.407Z,1.80
2023-04-03T06:31:07.983Z,1.90
2023-04-03T06:33:36.609Z,1.90
2023-04-03T06:36:07.840Z,2.00
2023-04-03T06:38:44.992Z,2.10
2023-04-03T06:41:13.550Z,2.10
2023-04-03T06:43:42.318Z,2.20
2023-04-03T06:46:23.705Z,2.20
2023-04-03T06:48:53.043Z,2.30
2023-04-03T06:51:30.634Z,2.40
2023-04-03T06:54:09.655Z,2.50
2023-04-03T06:56:38.591Z,2.50
2023-04-03T06:59:07.522Z,2.60
2023-04-03T07:01:43.009Z,2.60
2023-04-03T07:04:31.023Z,2.70
2023-04-03T07:07:06.689Z,2.70
2023-04-03T07:09:37.188Z,2.80
2023-04-03T07:12:12.750Z,2.80
2023-04-03T07:14:47.651Z,2.90
2023-04-03T07:17:16.430Z,3.00
2023-04-03T07:19:51.988Z,3.00
2023-04-03T07:22:27.015Z,3.10
2023-04-03T07:24:56.883Z,3.20
2023-04-03T07:27:32.702Z,3.20
2023-04-03T07:30:07.699Z,3.30
2023-04-03T07:32:36.334Z,3.30
2023-04-03T07:35:10.770Z,3.40
2023-04-03T07:37:39.218Z,3.40
2023-04-03T07:40:19.609Z,3.50
2023-04-03T07:42:54.722Z,3.60
2023-04-03T07:45:23.897Z,3.60
2023-04-03T07:48:00.064Z,3.70
2023-04-03T07:50:34.726Z,3.70
2023-04-03T07:53:03.437Z,3.80
2023-04-03T07:55:42.021Z,3.90
2023-04-03T07:58:17.677Z,3.90
2023-04-03T08:00:46.490Z,4.00
2023-04-03T08:03:24.140Z,4.10
2023-04-03T08:06:16.181Z,4.10
2023-04-03T08:08:53.093Z,4.20
2023-04-03T08:11:29.972Z,4.30
2023-04-03T08:14:04.703Z,4.40
2023-04-03T08:16:33.399Z,4.40
2023-04-03T08:19:15.103Z,4.50
2023-04-03T08:21:54.688Z,4.50
2023-04-03T08:24:30.060Z,4.60
2023-04-03T08:27:00.526Z,4.70
2023-04-03T08:29:35.985Z,4.70
2023-04-03T08:32:04.774Z,4.80
2023-04-03T08:34:42.715Z,4.90
2023-04-03T08:37:17.750Z,4.90
2023-04-03T08:39:46.564Z,5.00
2023-04-03T08:42:28.998Z,5.10
2023-04-03T08:45:07.773Z,5.10
2023-04-03T08:47:42.054Z,5.20
2023-04-03T08:50:23.031Z,5.30
2023-04-03T08:52:54.915Z,5.40
2023-04-03T08:55:34.733Z,5.40
2023-04-03T08:58:06.853Z,5.40
2023-04-03T09:00:52.770Z,5.50
2023-04-03T09:03:23.798Z,5.50
2023-04-03T09:06:18.645Z,5.60
2023-04-03T09:08:52.835Z,5.70
2023-04-03T09:11:36.628Z,5.80
2023-04-03T09:14:16.210Z,5.90
2023-04-03T09:16:58.801Z,6.00
2023-04-03T09:19:45.234Z,6.20
2023-04-03T09:22:26.731Z,6.20
2023-04-03T09:25:01.335Z,6.30
2023-04-03T09:27:36.945Z,6.50
2023-04-03T09:30:10.356Z,6.70
2023-04-03T09:32:46.753Z,6.80
2023-04-03T09:35:39.960Z,6.80
2023-04-03T09:38:27.913Z,7.00
2023-04-03T09:41:09.011Z,7.30
2023-04-03T09:43:47.863Z,7.50
2023-04-03T09:46:31.146Z,7.50
2023-04-03T09:49:09.703Z,7.50
2023-04-03T09:51:39.343Z,7.40
2023-04-03T09:54:40.135Z,7.50
2023-04-03T09:57:21.073Z,7.60
2023-04-03T10:00:00.717Z,7.80
2023-04-03T10:02:44.992Z,8.00
2023-04-03T10:05:40.421Z,8.10
2023-04-03T10:08:32.819Z,8.40
2023-04-03T10:11:16.929Z,8.40
2023-04-03T10:14:03.893Z,8.20
2023-04-03T10:16:40.501Z,8.40
2023-04-03T10:19:38.805Z,8.50
2023-04-03T10:22:25.884Z,8.70
2023-04-03T10:25:04.185Z,8.70
2023-04-03T10:28:01.142Z,8.80
2023-04-03T10:30:39.304Z,8.70
2023-04-03T10:33:36.215Z,8.90
2023-04-03T10:36:15.273Z,9.00
2023-04-03T10:38:59.849Z,9.20
2023-04-03T10:41:42.418Z,9.10
2023-04-03T10:44:30.169Z,9.10
2023-04-03T10:47:04.637Z,9.00
2023-04-03T10:49:59.702Z,9.00
2023-04-03T10:52:40.808Z,9.30
2023-04-03T10:55:32.177Z,9.30
2023-04-03T10:58:02.395Z,9.20
2023-04-03T11:00:44.792Z,9.20
2023-04-03T11:03:17.490Z,9.20
2023-04-03T11:05:54.932Z,9.20
2023-04-03T11:08:39.171Z,9.40
2023-04-03T11:11:18.905Z,9.50
2023-04-03T11:14:01.171Z,9.40
2023-04-03T11:16:37.848Z,9.40
2023-04-03T11:19:29.913Z,9.50
2023-04-03T11:22:05.776Z,9.60
2023-04-03T11:24:46.129Z,9.90
2023-04-03T11:27:23.925Z,10.10
2023-04-03T11:30:03.236Z,9.90
2023-04-03T11:32:53.171Z,9.90
2023-04-03T11:35:28.840Z,9.60
2023-04-03T11:37:58.397Z,9.50
2023-04-03T11:40:39.907Z,9.50
2023-04-03T11:43:20.237Z,9.70
2023-04-03T11:46:03.338Z,9.80
2023-04-03T11:49:01.510Z,9.80
2023-04-03T11:52:00.886Z,9.70
2023-04-03T11:54:50.802Z,9.80
2023-04-03T11:58:05.178Z,9.80
2023-04-03T12:01:16.194Z,9.60
2023-04-03T12:04:11.812Z,9.70
2023-04-03T12:07:30.159Z,9.70
2023-04-03T12:10:10.003Z,10.00
2023-04-03T12:12:42.986Z,10.00
2023-04-03T12:15:53.021Z,9.70
2023-04-03T12:18:56.600Z,9.80
2023-04-03T12:21:32.976Z,9.90
2023-04-03T12:24:11.903Z,10.20
2023-04-03T12:26:48.985Z,10.10
2023-04-03T12:29:31.956Z,10.30
2023-04-03T12:32:13.316Z,10.30
2023-04-03T12:35:04.228Z,10.30
2023-04-03T12:38:02.401Z,10.50
2023-04-03T12:40:46.212Z,10.40
2023-04-03T12:43:46.152Z,10.20
2023-04-03T12:46:18.421Z,10.00
2023-04-03T12:48:58.990Z,9.80
2023-04-03T12:51:37.298Z,9.90
2023-04-03T12:54:22.970Z,10.20
2023-04-03T12:56:51.628Z,10.40
2023-04-03T12:59:30.999Z,10.40
2023-04-03T13:02:08.181Z,10.30
2023-04-03T13:04:36.694Z,10.30
2023-04-03T13:07:19.969Z,10.60
2023-04-03T13:10:04.959Z,10.80
2023-04-03T13:12:33.867Z,11.00
2023-04-03T13:15:13.328Z,11.00
2023-04-03T13:17:49.030Z,11.00
2023-04-03T13:20:23.715Z,11.10
2023-04-03T13:23:20.369Z,10.90
2023-04-03T13:25:50.031Z,10.80
2023-04-03T13:28:28.262Z,11.30
2023-04-03T13:31:07.986Z,11.40
2023-04-03T13:33:39.886Z,11.50
2023-04-03T13:36:25.033Z,11.60
2023-04-03T13:39:04.260Z,11.90
2023-04-03T13:41:43.190Z,11.50
2023-04-03T13:44:36.294Z,11.20
2023-04-03T13:47:19.372Z,11.20
2023-04-03T13:50:08.062Z,10.90
2023-04-03T13:52:43.400Z,10.90
2023-04-03T13:55:28.096Z,11.00
2023-04-03T13:58:00.612Z,10.90
2023-04-03T14:00:45.032Z,10.90
2023-04-03T14:03:20.957Z,10.90
2023-04-03T14:06:04.332Z,10.70
2023-04-03T14:08:46.243Z,10.80
2023-04-03T14:11:20.098Z,10.90
2023-04-03T14:13:58.120Z,10.90
2023-04-03T14:16:32.150Z,10.80
2023-04-03T14:19:07.370Z,10.90
2023-04-03T14:21:43.053Z,11.00
2023-04-03T14:24:12.791Z,10.90
2023-04-03T14:26:50.039Z,10.80
2023-04-03T14:29:25.026Z,10.70
2023-04-03T14:32:03.618Z,10.40
2023-04-03T14:34:43.302Z,10.40
2023-04-03T14:37:21.295Z,10.50
2023-04-03T14:39:50.697Z,10.30
2023-04-03T14:42:33.297Z,10.40
2023-04-03T14:45:09.032Z,10.40
2023-04-03T14:47:42.407Z,10.30
2023-04-03T14:50:23.400Z,10.10
2023-04-03T14:53:00.000Z,10.10
2023-04-03T14:55:29.054Z,10.10
2023-04-03T14:58:06.018Z,10.10
2023-04-03T15:00:34.461Z,10.10
2023-04-03T15:03:09.444Z,10.10
2023-04-03T15:05:46.119Z,10.00
2023-04-03T15:08:24.902Z,10.00
2023-04-03T15:11:03.168Z,10.00
2023-04-03T15:13:33.416Z,10.00
2023-04-03T15:16:09.067Z,10.00
2023-04-03T15:18:47.337Z,9.90
2023-04-03T15:21:16.562Z,9.80
2023-04-03T15:23:51.095Z,9.80
2023-04-03T15:26:19.382Z,9.70
2023-04-03T15:28:56.336Z,9.70
2023-04-03T15:31:31.475Z,9.70
2023-04-03T15:34:00.109Z,9.70
2023-04-03T15:36:35.258Z,9.60
2023-04-03T15:39:10.415Z,9.60
2023-04-03T15:41:38.798Z,9.60
2023-04-03T15:44:15.458Z,9.60
2023-04-03T15:46:50.144Z,9.60
2023-04-03T15:49:19.175Z,9.60
2023-04-03T15:51:54.641Z,9.60
2023-04-03T15:54:25.297Z,9.60
2023-04-03T15:57:00.321Z,9.60
2023-04-03T15:59:33.287Z,9.60
2023-04-03T16:02:10.081Z,9.50
2023-04-03T16:04:45.105Z,9.50
2023-04-03T16:07:20.896Z,9.50
2023-04-03T16:10:03.402Z,9.50
2023-04-03T16:12:38.119Z,9.50
2023-04-03T16:15:10.469Z,9.50
2023-04-03T16:17:46.201Z,9.40
2023-04-03T16:20:23.442Z,9.30
2023-04-03T16:22:52.416Z,9.40
2023-04-03T16:25:28.107Z,9.20
2023-04-03T16:28:04.061Z,9.10
2023-04-03T16:30:34.269Z,9.10
2023-04-03T16:33:09.495Z,9.10
2023-04-03T16:35:44.428Z,9.10
2023-04-03T16:38:13.085Z,9.10
2023-04-03T16:40:48.471Z,9.10
2023-04-03T16:43:24.155Z,9.00
2023-04-03T16:45:56.283Z,8.90
2023-04-03T16:48:31.455Z,8.90
2023-04-03T16:51:00.074Z,8.80
2023-04-03T16:53:29.594Z,8.80
2023-04-03T16:56:07.194Z,8.70
2023-04-03T16:58:36.324Z,8.70
2023-04-03T17:01:20.207Z,8.60
2023-04-03T17:03:59.143Z,8.60
2023-04-03T17:06:34.650Z,8.60
2023-04-03T17:09:10.459Z,8.50
2023-04-03T17:11:48.658Z,8.50
2023-04-03T17:14:18.278Z,8.50
2023-04-03T17:16:59.772Z,8.40
2023-04-03T17:19:35.102Z,8.40
2023-04-03T17:22:03.491Z,8.40
2023-04-03T17:24:32.006Z,8.30
2023-04-03T17:27:07.222Z,8.30
2023-04-03T17:29:35.899Z,8.30
2023-04-03T17:32:12.282Z,8.20
2023-04-03T17:34:47.292Z,8.20
2023-04-03T17:37:15.887Z,8.20
2023-04-03T17:39:51.443Z,8.10
2023-04-03T17:42:26.317Z,8.10
2023-04-03T17:44:55.180Z,8.00
2023-04-03T17:47:32.672Z,8.00
2023-04-03T17:50:01.265Z,7.90
2023-04-03T17:52:31.974Z,7.90
2023-04-03T17:55:07.276Z,7.80
2023-04-03T17:57:35.825Z,7.80
2023-04-03T18:00:05.491Z,7.70
2023-04-03T18:02:42.388Z,7.70
2023-04-03T18:05:12.117Z,7.60
2023-04-03T18:07:54.689Z,7.60
2023-04-03T18:10:30.226Z,7.50
2023-04-03T18:12:59.153Z,7.50
2023-04-03T18:15:34.321Z,7.40
2023-04-03T18:18:11.542Z,7.40
2023-04-03T18:20:40.410Z,7.40
2023-04-03T18:23:16.305Z,7.30
2023-04-03T18:25:52.300Z,7.30
2023-04-03T18:28:21.033Z,7.20
2023-04-03T18:30:56.341Z,7.20
2023-04-03T18:33:26.549Z,7.20
2023-04-03T18:36:01.547Z,7.10
2023-04-03T18:38:36.284Z,7.00
2023-04-03T18:41:07.540Z,7.00
2023-04-03T18:43:42.469Z,7.00
2023-04-03T18:46:18.595Z,6.90
2023-04-03T18:48:48.791Z,6.80
2023-04-03T18:51:24.641Z,6.80
2023-04-03T18:53:59.289Z,6.70
2023-04-03T18:56:28.592Z,6.70
2023-04-03T18:59:03.332Z,6.70
2023-04-03T19:01:32.113Z,6.60
2023-04-03T19:04:02.314Z,6.60
2023-04-03T19:06:37.299Z,6.60
2023-04-03T19:09:15.139Z,6.50
2023-04-03T19:11:50.284Z,6.50
2023-04-03T19:14:18.585Z,6.50
2023-04-03T19:16:54.539Z,6.40
2023-04-03T19:19:31.289Z,6.40
2023-04-03T19:21:59.882Z,6.30
2023-04-03T19:24:35.556Z,6.30
2023-04-03T19:27:04.331Z,6.30
2023-04-03T19:29:39.332Z,6.20
2023-04-03T19:32:14.302Z,6.20
2023-04-03T19:34:44.033Z,6.10
2023-04-03T19:37:19.326Z,6.10
2023-04-03T19:39:54.656Z,6.00
2023-04-03T19:42:23.635Z,6.00
2023-04-03T19:45:00.647Z,6.00
2023-04-03T19:47:29.564Z,5.90
2023-04-03T19:50:06.321Z,5.80
2023-04-03T19:52:41.628Z,5.80
2023-04-03T19:55:11.085Z,5.80
2023-04-03T19:57:46.626Z,5.70
2023-04-03T20:00:15.999Z,5.70
2023-04-03T20:02:52.208Z,5.60
2023-04-03T20:05:22.435Z,5.60
2023-04-03T20:08:10.299Z,5.60
2023-04-03T20:10:46.628Z,5.50
2023-04-03T20:13:15.446Z,5.60
2023-04-03T20:15:51.632Z,5.50
2023-04-03T20:18:21.850Z,5.40
2023-04-03T20:21:03.362Z,5.40
2023-04-03T20:23:39.753Z,5.40
2023-04-03T20:26:12.043Z,5.40
2023-04-03T20:28:50.382Z,5.30
2023-04-03T20:31:26.642Z,5.30
2023-04-03T20:33:58.060Z,5.30
2023-04-03T20:36:37.448Z,5.30
2023-04-03T20:39:06.421Z,5.20
2023-04-03T20:41:44.333Z,5.20
2023-04-03T20:44:19.883Z,5.20
2023-04-03T20:46:53.308Z,5.10
2023-04-03T20:49:29.682Z,5.10
2023-04-03T20:52:00.035Z,5.10
2023-04-03T20:54:35.481Z,5.00
2023-04-03T20:57:04.137Z,5.00
2023-04-03T20:59:34.507Z,5.00
2023-04-03T21:02:09.435Z,4.90
2023-04-03T21:04:45.377Z,4.90
2023-04-03T21:08:19.415Z,4.80
2023-04-03T21:11:26.541Z,4.80
2023-04-03T21:14:38.656Z,4.70
2023-04-03T21:17:06.761Z,4.70
2023-04-03T21:19:49.419Z,4.60
2023-04-03T21:22:18.053Z,4.60
2023-04-03T21:24:53.704Z,4.50
2023-04-03T21:27:22.491Z,4.50
2023-04-03T21:29:59.398Z,4.50
2023-04-03T21:32:28.309Z,4.40
2023-04-03T21:35:04.928Z,4.40
2023-04-03T21:37:41.673Z,4.40
2023-04-03T21:40:11.457Z,4.40
2023-04-03T21:42:46.372Z,4.30
2023-04-03T21:45:16.160Z,4.30
2023-04-03T21:47:51.504Z,4.20
2023-04-03T21:50:28.457Z,4.20
2023-04-03T21:52:59.886Z,4.20
2023-04-03T21:55:35.440Z,4.20
2023-04-03T21:58:10.490Z,4.10
2023-04-03T22:00:39.354Z,4.10
2023-04-03T22:03:14.639Z,4.10
2023-04-03T22:05:45.161Z,4.00
2023-04-03T22:08:27.505Z,4.00
2023-04-03T22:11:02.502Z,4.00
2023-04-03T22:13:37.788Z,4.00
2023-04-03T22:16:13.530Z,3.90
2023-04-03T22:18:43.638Z,3.90
2023-04-03T22:21:20.470Z,3.90
2023-04-03T22:23:49.421Z,3.90
2023-04-03T22:26:24.711Z,3.90
2023-04-03T22:28:53.184Z,3.80
2023-04-03T22:31:28.785Z,3.80
2023-04-03T22:34:05.475Z,3.80
2023-04-03T22:36:36.579Z,3.70
2023-04-03T22:39:11.517Z,3.70
2023-04-03T22:41:40.318Z,3.60
2023-04-03T22:44:15.778Z,3.60
2023-04-03T22:46:50.641Z,3.60
2023-04-03T22:49:19.898Z,3.50
2023-04-03T22:51:56.418Z,3.50
2023-04-03T22:54:25.013Z,3.50
2023-04-03T22:57:01.529Z,3.50
2023-04-03T22:59:30.452Z,3.50
2023-04-03T23:02:05.515Z,3.40
2023-04-03T23:04:34.387Z,3.40
2023-04-03T23:07:17.837Z,3.40
2023-04-03T23:09:59.477Z,3.40
2023-04-03T23:12:28.410Z,3.30
2023-04-03T23:15:03.514Z,3.30
2023-04-03T23:17:39.640Z,3.30
2023-04-03T23:20:09.996Z,3.30
2023-04-03T23:22:46.834Z,3.20
2023-04-03T23:25:15.781Z,3.20
2023-04-03T23:27:44.448Z,3.20
2023-04-03T23:30:20.774Z,3.10
2023-04-03T23:32:49.686Z,3.10
2023-04-03T23:35:18.722Z,3.10
2023-04-03T23:37:55.430Z,3.00
2023-04-03T23:40:23.901Z,3.00
2023-04-03T23:42:58.841Z,3.00
2023-04-03T23:45:27.297Z,3.00
2023-04-03T23:48:02.584Z,3.00
2023-04-03T23:50:38.017Z,2.90
2023-04-03T23:53:08.857Z,3.00
2023-04-03T23:55:44.840Z,2.80
2023-04-03T23:58:13.572Z,2.80
